Autryville, North Carolina
Current Conditions -  °F | °C
As of 9:53 PM on Friday 21 Nov 2014 (Local Time) from KFAY Reporting Station
Clear Clear  
Wind Chill: 30°   Ceiling: Unl
Heat Index: 34°   Visibility: 10mi
Dew Point: 13°   Wind: 5mph
Humidity: 42%   Direction: 60°ENE
Pressure: 30.53"   Gusts: NA
Location:  35°N, 78.64°W
Report Text: KFAY 220253Z AUTO 06004KT 10SM CLR 01/M11 A3053 RMK AO2 SLP335 T00111106 53012
Loading
Personal Weather Stations






























Interactive Weather Map New forecast layout! Learn more

10-Day Weather Forecast

Advertisements
Track Severe Weather on mobile